Time;durP1;ratioP1;P1;durP2;ratioP2;P2;SDS_P1;SDS_P2;PMS_P1;PMS_P2;Temp;Humidity;BMP_temperature;BMP_pressure;BME280_temperature;BME280_humidity;BME280_pressure;Samples;Min_cycle;Max_cycle;Signal;HPM_P1;HPM_P2
2023/06/02 00:02:08;;;;;;;5.10;4.60;;;;;;;13.52;100.00;96727.34;5011005;28;20229;-69
2023/06/02 00:04:37;;;;;;;5.00;4.70;;;;;;;13.46;100.00;96728.19;4986910;28;20322;-71
2023/06/02 00:07:07;;;;;;;4.83;4.53;;;;;;;13.39;100.00;96736.16;5013339;28;20221;-70
2023/06/02 00:09:38;;;;;;;6.00;4.57;;;;;;;13.35;100.00;96726.97;5004630;28;20768;-70
2023/06/02 00:12:07;;;;;;;4.83;4.43;;;;;;;13.34;100.00;96735.16;4986843;28;20216;-73
2023/06/02 00:14:37;;;;;;;5.30;4.90;;;;;;;13.28;100.00;96723.53;5003616;28;20211;-70
2023/06/02 00:17:06;;;;;;;5.37;4.93;;;;;;;13.21;100.00;96725.41;4975302;28;20231;-68
2023/06/02 00:19:33;;;;;;;6.87;5.30;;;;;;;13.15;100.00;96729.75;4987749;28;20204;-71
2023/06/02 00:22:05;;;;;;;5.10;4.57;;;;;;;13.11;100.00;96728.53;5013016;28;20232;-67
2023/06/02 00:24:33;;;;;;;6.60;5.10;;;;;;;13.10;100.00;96732.22;5003022;28;20270;-73
2023/06/02 00:27:00;;;;;;;5.10;4.60;;;;;;;13.04;100.00;96728.56;5014647;28;20216;-66
2023/06/02 00:29:28;;;;;;;5.53;4.50;;;;;;;13.01;100.00;96723.66;4985757;28;20303;-73
2023/06/02 00:31:55;;;;;;;4.70;4.40;;;;;;;12.97;100.00;96723.25;4969406;28;20209;-69
2023/06/02 00:34:23;;;;;;;5.23;4.70;;;;;;;12.92;100.00;96720.41;5007343;28;20246;-72
2023/06/02 00:36:51;;;;;;;5.00;4.60;;;;;;;12.89;100.00;96726.16;4992970;28;20667;-68
2023/06/02 00:39:20;;;;;;;5.50;5.10;;;;;;;12.83;100.00;96730.44;5005261;28;20287;-72
2023/06/02 00:41:48;;;;;;;6.07;5.00;;;;;;;12.85;100.00;96724.94;5009636;28;20224;-71
2023/06/02 00:44:15;;;;;;;5.57;5.17;;;;;;;12.78;100.00;96735.59;4986833;28;20307;-70
2023/06/02 00:46:43;;;;;;;5.37;4.97;;;;;;;12.78;100.00;96729.47;4966951;28;20239;-68
2023/06/02 00:49:11;;;;;;;6.03;5.53;;;;;;;12.76;100.00;96734.19;5008884;28;20222;-72
2023/06/02 00:51:40;;;;;;;5.77;5.17;;;;;;;12.71;100.00;96734.78;4984461;28;20690;-69
2023/06/02 00:54:09;;;;;;;6.57;6.07;;;;;;;12.72;100.00;96736.41;5007170;28;20266;-69
2023/06/02 00:56:39;;;;;;;5.87;5.20;;;;;;;12.71;100.00;96730.31;5008446;28;20350;-69
2023/06/02 00:59:07;;;;;;;6.10;5.60;;;;;;;12.62;100.00;96718.25;4989857;28;20729;-70
2023/06/02 01:01:35;;;;;;;6.10;5.60;;;;;;;12.65;100.00;96733.78;5007123;28;20232;-69
2023/06/02 01:04:03;;;;;;;6.90;6.10;;;;;;;12.52;100.00;96725.84;4978911;28;20774;-70
2023/06/02 01:06:34;;;;;;;6.50;5.83;;;;;;;12.57;100.00;96729.53;4987803;28;20200;-73
2023/06/02 01:09:03;;;;;;;6.53;6.00;;;;;;;12.57;100.00;96734.84;5013757;28;20727;-70
2023/06/02 01:11:31;;;;;;;5.90;5.50;;;;;;;12.52;100.00;96734.66;5001977;28;20200;-69
2023/06/02 01:14:00;;;;;;;5.80;5.40;;;;;;;12.52;100.00;96732.00;4987890;28;20660;-68
2023/06/02 01:16:28;;;;;;;6.70;6.00;;;;;;;12.49;100.00;96742.19;5002943;28;20708;-70
2023/06/02 01:18:59;;;;;;;7.13;6.53;;;;;;;12.44;100.00;96740.97;4976752;28;21192;-68
2023/06/02 01:21:30;;;;;;;6.27;5.67;;;;;;;12.44;100.00;96726.88;4997694;28;20254;-71
2023/06/02 01:23:59;;;;;;;6.23;5.63;;;;;;;12.43;100.00;96731.38;5014575;28;20242;-70
2023/06/02 01:26:29;;;;;;;6.10;5.60;;;;;;;12.38;100.00;96725.88;5006157;28;20872;-71
2023/06/02 01:28:56;;;;;;;7.17;6.47;;;;;;;12.40;100.00;96725.66;4985532;28;20424;-68
2023/06/02 01:31:27;;;;;;;7.20;6.10;;;;;;;12.20;100.00;96691.16;5004720;28;20251;-72
2023/06/02 01:34:01;;;;;;;7.27;6.27;;;;;;;12.36;100.00;96724.44;4969790;28;21668;-67
2023/06/02 01:36:30;;;;;;;6.37;5.77;;;;;;;12.36;100.00;96727.09;5007390;28;20520;-70
2023/06/02 01:39:00;;;;;;;7.33;6.63;;;;;;;12.23;100.00;96719.94;4986267;28;20256;-70
2023/06/02 01:41:28;;;;;;;7.20;6.50;;;;;;;12.12;100.00;96711.59;5006342;28;20300;-71
2023/06/02 01:43:57;;;;;;;6.97;6.37;;;;;;;12.16;100.00;96718.13;5004835;28;20732;-70
2023/06/02 01:46:25;;;;;;;6.57;5.97;;;;;;;12.09;100.00;96717.31;4984060;28;20908;-71
2023/06/02 01:48:53;;;;;;;7.07;6.47;;;;;;;11.99;100.00;96715.03;5013802;28;20239;-69
2023/06/02 01:51:20;;;;;;;7.63;6.93;;;;;;;11.99;100.00;96708.91;4966028;28;20695;-72
2023/06/02 01:53:48;;;;;;;7.10;6.50;;;;;;;11.91;100.00;96711.75;4997825;28;20212;-68
2023/06/02 01:56:17;;;;;;;6.43;5.83;;;;;;;11.87;100.00;96714.81;5009712;28;20216;-71
2023/06/02 01:58:46;;;;;;;7.47;6.87;;;;;;;11.88;100.00;96708.50;4991050;28;20298;-69
2023/06/02 02:01:14;;;;;;;9.63;6.23;;;;;;;11.87;100.00;96709.50;4981680;28;20253;-72
2023/06/02 02:03:41;;;;;;;6.53;5.97;;;;;;;11.79;100.00;96699.09;5002399;28;20484;-69
2023/06/02 02:06:10;;;;;;;7.57;6.77;;;;;;;11.76;100.00;96702.16;4963144;28;20215;-69
2023/06/02 02:08:37;;;;;;;8.43;7.63;;;;;;;11.78;100.00;96699.31;5007143;28;20460;-71
2023/06/02 02:11:05;;;;;;;8.77;6.63;;;;;;;11.71;100.00;96707.25;4991119;28;20227;-71
2023/06/02 02:13:35;;;;;;;10.00;6.77;;;;;;;11.66;100.00;96707.06;5002764;28;21356;-70
2023/06/02 02:16:02;;;;;;;8.57;7.17;;;;;;;11.62;100.00;96703.19;4987196;28;20219;-69
2023/06/02 02:18:30;;;;;;;8.43;7.13;;;;;;;11.63;100.00;96705.63;5008898;28;20220;-71
2023/06/02 02:20:58;;;;;;;8.10;7.30;;;;;;;11.57;100.00;96717.88;4969822;28;20231;-68
2023/06/02 02:23:26;;;;;;;7.63;6.97;;;;;;;11.50;100.00;96724.19;5006748;28;20863;-71
2023/06/02 02:25:53;;;;;;;7.83;7.10;;;;;;;11.40;100.00;96725.38;4985889;28;20204;-69
2023/06/02 02:28:21;;;;;;;7.53;6.93;;;;;;;11.41;100.00;96712.94;5002730;28;20239;-71
2023/06/02 02:30:50;;;;;;;7.90;7.20;;;;;;;11.35;100.00;96717.19;4987523;28;20216;-73
2023/06/02 02:33:19;;;;;;;8.90;8.10;;;;;;;11.29;100.00;96715.34;5010540;28;20850;-70
2023/06/02 02:35:47;;;;;;;8.77;7.87;;;;;;;11.13;100.00;96704.09;4963285;28;20721;-69
2023/06/02 02:38:15;;;;;;;9.87;8.90;;;;;;;11.22;100.00;96722.47;5011402;28;20580;-70
2023/06/02 02:40:43;;;;;;;9.70;8.37;;;;;;;11.17;100.00;96714.28;4979766;28;21019;-70
2023/06/02 02:43:10;;;;;;;11.10;8.87;;;;;;;11.18;100.00;96726.53;5007851;28;20407;-70
2023/06/02 02:45:38;;;;;;;8.47;7.83;;;;;;;11.08;100.00;96726.91;4980130;28;20228;-72
2023/06/02 02:48:07;;;;;;;8.43;7.53;;;;;;;11.07;100.00;96726.09;5012650;28;20212;-71
2023/06/02 02:50:35;;;;;;;9.33;8.43;;;;;;;10.99;100.00;96724.44;4980483;28;20502;-70
2023/06/02 02:53:04;;;;;;;9.70;8.80;;;;;;;10.98;100.00;96730.75;4968844;28;20216;-71
2023/06/02 02:55:32;;;;;;;9.97;9.00;;;;;;;11.00;100.00;96727.91;4999838;28;20502;-69
2023/06/02 02:58:00;;;;;;;10.13;9.23;;;;;;;10.92;100.00;96739.50;4982315;28;20699;-72
2023/06/02 03:00:28;;;;;;;11.87;9.30;;;;;;;10.94;100.00;96748.06;4980199;28;20594;-67
2023/06/02 03:02:56;;;;;;;8.93;8.13;;;;;;;10.92;100.00;96747.44;4987461;28;20735;-67
2023/06/02 03:05:26;;;;;;;10.03;9.13;;;;;;;10.86;100.00;96738.44;5006804;28;20230;-68
2023/06/02 03:07:54;;;;;;;11.17;9.70;;;;;;;10.93;100.00;96751.72;4963998;28;20729;-70
2023/06/02 03:10:22;;;;;;;10.43;9.53;;;;;;;10.93;100.00;96751.72;5000550;28;20417;-69
2023/06/02 03:12:50;;;;;;;10.87;9.80;;;;;;;10.91;100.00;96744.97;4955308;28;20334;-67
2023/06/02 03:15:18;;;;;;;11.27;10.27;;;;;;;10.88;100.00;96737.41;5005047;28;20715;-68
2023/06/02 03:17:50;;;;;;;9.93;9.13;;;;;;;10.84;100.00;96745.78;4987288;28;20326;-67
2023/06/02 03:20:19;;;;;;;10.43;9.43;;;;;;;10.86;100.00;96749.03;5008944;28;20676;-70
2023/06/02 03:22:48;;;;;;;10.10;9.23;;;;;;;10.83;100.00;96749.44;4967089;28;20753;-67
2023/06/02 03:25:15;;;;;;;9.93;9.03;;;;;;;10.75;100.00;96748.78;5009557;28;20278;-68
2023/06/02 03:27:43;;;;;;;10.10;9.13;;;;;;;10.80;100.00;96756.97;4980457;28;20489;-70
2023/06/02 03:30:12;;;;;;;10.77;9.67;;;;;;;10.80;100.00;96763.09;5006669;28;20204;-70
2023/06/02 03:32:40;;;;;;;10.27;9.27;;;;;;;10.77;100.00;96765.28;4979963;28;20221;-69
2023/06/02 03:35:08;;;;;;;10.83;9.83;;;;;;;10.76;100.00;96761.00;5012000;28;20204;-72
2023/06/02 03:37:36;;;;;;;10.30;9.10;;;;;;;10.76;100.00;96761.00;4966979;28;21609;-70
2023/06/02 03:40:07;;;;;;;10.17;9.23;;;;;;;10.76;100.00;96761.84;5009554;28;20344;-68
2023/06/02 03:42:35;;;;;;;10.30;9.27;;;;;;;10.73;100.00;96761.41;4982768;28;20316;-69
2023/06/02 03:45:03;;;;;;;9.50;8.77;;;;;;;10.73;100.00;96762.22;5014547;28;20200;-69
2023/06/02 03:47:30;;;;;;;9.40;8.60;;;;;;;10.74;100.00;96773.63;5011441;28;21021;-67
2023/06/02 03:49:58;;;;;;;10.47;9.07;;;;;;;10.77;100.00;96776.72;5012316;28;20231;-70
2023/06/02 03:52:25;;;;;;;10.30;9.40;;;;;;;10.83;100.00;96775.94;5010330;28;20298;-70
2023/06/02 03:54:53;;;;;;;10.30;9.20;;;;;;;10.83;100.00;96783.88;4974407;28;20271;-68
2023/06/02 03:57:22;;;;;;;10.73;9.70;;;;;;;10.93;100.00;96788.00;4986397;28;20307;-67
2023/06/02 03:59:50;;;;;;;11.43;10.37;;;;;;;10.92;100.00;96784.56;5012327;28;20290;-70
2023/06/02 04:02:18;;;;;;;10.53;9.43;;;;;;;10.93;100.00;96786.19;5012455;28;20279;-71
2023/06/02 04:04:46;;;;;;;10.07;9.10;;;;;;;10.94;100.00;96789.66;5015326;28;20543;-69
2023/06/02 04:07:14;;;;;;;9.63;8.73;;;;;;;10.89;100.00;96782.31;5007986;28;20235;-69
2023/06/02 04:09:41;;;;;;;10.93;9.90;;;;;;;10.91;100.00;96787.38;4967101;28;20709;-68
2023/06/02 04:12:09;;;;;;;10.77;9.83;;;;;;;10.99;100.00;96788.06;5017844;28;20304;-69
2023/06/02 04:14:38;;;;;;;10.30;9.43;;;;;;;10.91;100.00;96763.53;4977459;28;20321;-69
2023/06/02 04:17:07;;;;;;;9.23;8.33;;;;;;;11.11;100.00;96800.75;5015971;28;20250;-67
2023/06/02 04:19:35;;;;;;;10.13;9.13;;;;;;;11.15;100.00;96804.63;5013543;28;20204;-66
2023/06/02 04:22:03;;;;;;;9.67;8.97;;;;;;;11.16;100.00;96798.31;5010857;28;20251;-66
2023/06/02 04:24:31;;;;;;;10.83;9.93;;;;;;;11.18;100.00;96804.28;4967995;28;20228;-69
2023/06/02 04:26:59;;;;;;;11.83;10.77;;;;;;;11.16;100.00;96803.63;5010712;28;20215;-66
2023/06/02 04:29:28;;;;;;;11.23;10.23;;;;;;;11.24;100.00;96803.47;4983100;28;20214;-71
2023/06/02 04:31:57;;;;;;;12.63;11.30;;;;;;;11.33;100.00;96801.44;5011030;28;20205;-67
2023/06/02 04:34:25;;;;;;;10.93;10.00;;;;;;;11.36;100.00;96805.56;5013797;28;20192;-69
2023/06/02 04:36:53;;;;;;;12.07;10.87;;;;;;;11.38;100.00;96812.31;5010886;28;20201;-65
2023/06/02 04:39:20;;;;;;;11.73;10.60;;;;;;;11.49;100.00;96810.91;5008885;28;20212;-74
2023/06/02 04:41:49;;;;;;;12.57;11.57;;;;;;;11.61;100.00;96810.34;4968225;28;20335;-68
2023/06/02 04:44:17;;;;;;;13.47;12.17;;;;;;;11.66;100.00;96810.56;4985919;28;20319;-66
2023/06/02 04:46:44;;;;;;;12.27;10.93;;;;;;;11.73;100.00;96812.19;5008743;28;20457;-67
2023/06/02 04:49:14;;;;;;;13.53;12.33;;;;;;;11.81;100.00;96805.09;5020020;28;20622;-71
2023/06/02 04:51:41;;;;;;;11.63;10.53;;;;;;;11.85;100.00;96801.81;5004645;28;20722;-67
2023/06/02 04:54:09;;;;;;;14.10;12.80;;;;;;;11.80;100.00;96796.28;4988836;28;20201;-69
2023/06/02 04:56:37;;;;;;;13.10;11.97;;;;;;;11.99;100.00;96801.84;4966049;28;20417;-67
2023/06/02 04:59:05;;;;;;;13.37;12.30;;;;;;;12.08;100.00;96791.84;5009122;28;20267;-66
2023/06/02 05:01:33;;;;;;;12.47;11.47;;;;;;;12.23;100.00;96797.81;4987793;28;20413;-68
2023/06/02 05:04:01;;;;;;;12.93;11.93;;;;;;;12.25;100.00;96790.44;5005445;28;20220;-69
2023/06/02 05:06:30;;;;;;;12.60;11.50;;;;;;;12.31;100.00;96794.09;5006986;28;20409;-70
2023/06/02 05:08:58;;;;;;;13.80;12.60;;;;;;;12.50;100.00;96789.00;4983428;28;20256;-66
2023/06/02 05:11:25;;;;;;;13.77;12.37;;;;;;;12.53;100.00;96792.09;4971021;28;20234;-67
2023/06/02 05:13:55;;;;;;;12.43;11.23;;;;;;;12.51;100.00;96799.44;4949774;28;20748;-67
2023/06/02 05:16:24;;;;;;;11.97;10.97;;;;;;;12.74;100.00;96798.16;4987466;28;20210;-69
2023/06/02 05:18:52;;;;;;;12.73;11.13;;;;;;;12.81;100.00;96792.84;4974677;28;20350;-67
2023/06/02 05:21:19;;;;;;;12.50;11.30;;;;;;;12.84;100.00;96773.81;5012679;28;20197;-66
2023/06/02 05:23:48;;;;;;;11.73;10.50;;;;;;;12.97;100.00;96792.38;5002660;28;20464;-66
2023/06/02 05:26:16;;;;;;;11.73;10.27;;;;;;;13.00;100.00;96791.97;5012363;28;20258;-66
2023/06/02 05:28:44;;;;;;;11.40;10.50;;;;;;;13.06;100.00;96797.47;4937563;28;21439;-67
2023/06/02 05:31:11;;;;;;;11.73;10.60;;;;;;;13.12;100.00;96784.16;4985976;28;20278;-67
2023/06/02 05:33:39;;;;;;;10.47;9.47;;;;;;;13.45;100.00;96793.88;4972309;28;20205;-68
2023/06/02 05:36:07;;;;;;;11.57;10.47;;;;;;;13.63;100.00;96797.69;5013484;28;20271;-68
2023/06/02 05:38:35;;;;;;;11.27;10.37;;;;;;;13.67;100.00;96801.56;5007900;28;20236;-67
2023/06/02 05:41:04;;;;;;;11.20;10.37;;;;;;;13.66;100.00;96793.78;5010397;28;20196;-66
2023/06/02 05:43:32;;;;;;;11.17;10.10;;;;;;;13.59;100.00;96777.84;4984928;28;20232;-68
2023/06/02 05:46:00;;;;;;;11.20;10.20;;;;;;;13.93;100.00;96802.44;4970074;28;20225;-68
2023/06/02 05:48:28;;;;;;;11.00;10.00;;;;;;;14.15;100.00;96807.41;4995203;28;20263;-68
2023/06/02 05:50:56;;;;;;;10.23;9.37;;;;;;;14.30;100.00;96802.56;4988374;28;20390;-67
2023/06/02 05:53:23;;;;;;;11.30;10.37;;;;;;;14.40;100.00;96803.97;5009076;28;20237;-67
2023/06/02 05:55:51;;;;;;;11.50;10.40;;;;;;;14.31;100.00;96796.22;5010520;28;20407;-71
2023/06/02 05:58:20;;;;;;;9.73;9.00;;;;;;;14.28;100.00;96804.66;5008987;28;20323;-67
2023/06/02 06:00:48;;;;;;;11.03;10.03;;;;;;;14.40;100.00;96807.44;4939690;28;20265;-67
2023/06/02 06:03:15;;;;;;;10.43;9.53;;;;;;;14.60;100.00;96801.91;4994648;28;20647;-66
2023/06/02 06:05:43;;;;;;;11.80;10.80;;;;;;;14.65;100.00;96803.94;4988696;28;20229;-68
2023/06/02 06:08:11;;;;;;;10.20;9.30;;;;;;;14.69;100.00;96806.97;5011425;28;20812;-68
2023/06/02 06:10:42;;;;;;;11.50;10.47;;;;;;;14.78;100.00;96804.88;5006901;28;20223;-67
2023/06/02 06:13:09;;;;;;;11.30;10.20;;;;;;;14.88;100.00;96811.34;5010829;28;20684;-67
2023/06/02 06:15:39;;;;;;;11.33;10.40;;;;;;;15.01;100.00;96804.22;4970209;28;20435;-68
2023/06/02 06:18:06;;;;;;;10.93;10.03;;;;;;;15.03;100.00;96805.66;4959745;28;20228;-68
2023/06/02 06:20:34;;;;;;;12.40;11.20;;;;;;;14.88;100.00;96808.66;5009329;28;20310;-68
2023/06/02 06:23:02;;;;;;;11.20;10.13;;;;;;;14.85;100.00;96808.28;4989892;28;20208;-69
2023/06/02 06:25:29;;;;;;;10.80;9.93;;;;;;;14.98;100.00;96802.81;5005895;28;20537;-68
2023/06/02 06:27:57;;;;;;;11.20;10.20;;;;;;;15.08;100.00;96809.50;5009058;28;21544;-68
2023/06/02 06:30:25;;;;;;;10.73;9.70;;;;;;;15.18;100.00;96815.13;5006583;28;20478;-68
2023/06/02 06:32:54;;;;;;;9.93;9.23;;;;;;;15.26;100.00;96820.16;4943436;28;20911;-67
2023/06/02 06:35:22;;;;;;;10.83;9.83;;;;;;;15.24;100.00;96818.75;5007906;28;20200;-68
2023/06/02 06:37:49;;;;;;;12.47;11.30;;;;;;;15.17;100.00;96822.31;4986926;28;20251;-67
2023/06/02 06:40:17;;;;;;;11.07;9.97;;;;;;;15.28;100.00;96828.75;5004373;28;20232;-68
2023/06/02 06:42:44;;;;;;;11.07;10.10;;;;;;;15.44;100.00;96826.53;5006291;28;20262;-69
2023/06/02 06:45:12;;;;;;;9.77;9.03;;;;;;;15.46;100.00;96833.28;5003718;28;20742;-65
2023/06/02 06:47:40;;;;;;;10.57;9.77;;;;;;;15.62;100.00;96823.03;4943840;28;20228;-68
2023/06/02 06:50:09;;;;;;;11.50;10.40;;;;;;;15.61;100.00;96830.22;5009431;28;20213;-67
2023/06/02 06:52:37;;;;;;;11.00;10.10;;;;;;;15.58;100.00;96830.66;4987879;28;20220;-68
2023/06/02 06:55:06;;;;;;;10.40;9.47;;;;;;;15.55;100.00;96827.66;5003659;28;20938;-67
2023/06/02 06:57:33;;;;;;;11.97;10.77;;;;;;;15.66;100.00;96834.06;5003500;28;20558;-67
2023/06/02 07:00:02;;;;;;;10.53;9.53;;;;;;;15.67;100.00;96825.00;5008914;28;20303;-67
2023/06/02 07:02:30;;;;;;;11.03;10.03;;;;;;;15.72;100.00;96828.63;4961791;28;21262;-67
2023/06/02 07:04:58;;;;;;;10.60;9.60;;;;;;;15.97;100.00;96842.94;4987514;28;20314;-67
2023/06/02 07:07:27;;;;;;;11.13;10.03;;;;;;;15.83;100.00;96839.59;4984319;28;21139;-67
2023/06/02 07:09:54;;;;;;;10.23;9.33;;;;;;;15.87;100.00;96841.59;5006352;28;20205;-69
2023/06/02 07:12:22;;;;;;;11.07;10.17;;;;;;;15.91;100.00;96834.78;4998688;28;20465;-69
2023/06/02 07:14:51;;;;;;;9.33;8.73;;;;;;;16.12;100.00;96839.84;5011060;28;20286;-68
2023/06/02 07:17:19;;;;;;;10.90;9.90;;;;;;;16.13;100.00;96839.63;5013072;28;20422;-68
2023/06/02 07:19:46;;;;;;;10.27;9.30;;;;;;;16.06;100.00;96837.03;4948752;28;20222;-68
2023/06/02 07:22:14;;;;;;;10.00;9.03;;;;;;;16.29;100.00;96842.69;4993025;28;20214;-66
2023/06/02 07:24:44;;;;;;;10.77;9.87;;;;;;;16.61;100.00;96837.03;5011500;28;20200;-69
2023/06/02 07:27:13;;;;;;;11.37;10.30;;;;;;;16.51;100.00;96840.28;5014528;28;20291;-70
2023/06/02 07:29:42;;;;;;;10.13;9.23;;;;;;;16.65;100.00;96851.56;5005926;28;20204;-69
2023/06/02 07:32:10;;;;;;;11.47;10.47;;;;;;;16.61;100.00;96845.06;5010487;28;20301;-67
2023/06/02 07:34:38;;;;;;;10.77;9.73;;;;;;;16.71;100.00;96837.28;4967111;28;21249;-66
2023/06/02 07:37:06;;;;;;;9.97;9.07;;;;;;;16.83;100.00;96850.66;5005552;28;20200;-67
2023/06/02 07:39:33;;;;;;;10.67;9.87;;;;;;;16.88;100.00;96841.94;4994292;28;21254;-68
2023/06/02 07:42:02;;;;;;;11.17;10.07;;;;;;;17.00;100.00;96841.94;5011502;28;20208;-68
2023/06/02 07:44:30;;;;;;;11.10;10.07;;;;;;;17.19;100.00;96842.63;5007389;28;20231;-68
2023/06/02 07:46:58;;;;;;;10.37;9.60;;;;;;;17.14;100.00;96846.03;5009729;28;20350;-69
2023/06/02 07:49:25;;;;;;;10.30;9.50;;;;;;;17.26;100.00;96839.84;4967242;28;21532;-65
2023/06/02 07:51:53;;;;;;;10.97;9.93;;;;;;;17.42;100.00;96840.97;5014250;28;20207;-66
2023/06/02 07:54:21;;;;;;;10.40;9.43;;;;;;;17.50;100.00;96838.75;4986217;28;20478;-66
2023/06/02 07:56:50;;;;;;;10.53;9.60;;;;;;;17.53;100.00;96852.72;5007680;28;20204;-69
2023/06/02 07:59:19;;;;;;;10.10;9.37;;;;;;;17.56;100.00;96845.00;5005394;28;20684;-69
2023/06/02 08:01:47;;;;;;;10.87;9.47;;;;;;;17.60;100.00;96848.81;5010691;28;20208;-70
2023/06/02 08:04:15;;;;;;;10.10;9.17;;;;;;;17.60;100.00;96851.50;5011590;28;20734;-68
2023/06/02 08:06:42;;;;;;;9.43;8.63;;;;;;;17.63;100.00;96851.06;4969906;28;20372;-68
2023/06/02 08:09:10;;;;;;;9.37;8.63;;;;;;;17.62;100.00;96854.78;4987151;28;20950;-67
2023/06/02 08:11:38;;;;;;;10.27;9.23;;;;;;;17.63;100.00;96850.22;5011778;28;20204;-67
2023/06/02 08:14:06;;;;;;;10.27;9.47;;;;;;;17.69;100.00;96851.97;5003394;28;20205;-67
2023/06/02 08:16:35;;;;;;;10.20;9.20;;;;;;;17.68;100.00;96844.97;5013046;28;20299;-67
2023/06/02 08:19:23;;;;;;;10.23;9.30;;;;;;;17.72;100.00;96848.00;5010182;28;20626;-68
2023/06/02 08:21:51;;;;;;;10.33;9.53;;;;;;;17.92;100.00;96848.38;4964612;28;20601;-67
2023/06/02 08:24:20;;;;;;;11.50;9.37;;;;;;;18.03;100.00;96853.97;4984604;28;20406;-66
2023/06/02 08:26:48;;;;;;;10.40;9.57;;;;;;;18.32;100.00;96851.25;5008467;28;20232;-66
2023/06/02 08:29:16;;;;;;;10.77;9.77;;;;;;;18.39;100.00;96859.16;4968331;28;1109856;-69
2023/06/02 08:31:46;;;;;;;10.93;9.93;;;;;;;18.75;100.00;96859.72;5012512;28;20231;-68
2023/06/02 08:34:14;;;;;;;9.57;8.90;;;;;;;18.79;100.00;96863.53;5011053;28;20622;-68
2023/06/02 08:36:42;;;;;;;10.57;9.60;;;;;;;18.71;100.00;96853.22;4967409;28;20859;-67
2023/06/02 08:39:11;;;;;;;10.30;9.40;;;;;;;18.54;100.00;96856.72;4980880;28;20440;-67
2023/06/02 08:41:39;;;;;;;12.47;9.40;;;;;;;18.39;100.00;96862.66;4991808;28;20219;-68
2023/06/02 08:44:07;;;;;;;11.13;10.23;;;;;;;18.30;100.00;96862.22;5002611;28;20223;-69
2023/06/02 08:46:35;;;;;;;11.00;10.00;;;;;;;18.26;100.00;96850.38;5007357;28;20865;-68
2023/06/02 08:49:04;;;;;;;10.47;9.57;;;;;;;18.31;100.00;96828.16;5012226;28;20224;-67
2023/06/02 08:51:36;;;;;;;11.73;9.80;;;;;;;18.64;100.00;96864.94;5010054;28;20750;-67
2023/06/02 08:54:07;;;;;;;10.87;9.73;;;;;;;18.50;100.00;96859.06;4965242;28;20219;-67
2023/06/02 08:56:35;;;;;;;10.57;9.77;;;;;;;18.60;100.00;96853.06;4993405;28;20575;-69
2023/06/02 08:59:03;;;;;;;9.90;9.10;;;;;;;18.76;100.00;96859.50;5005167;28;20677;-67
2023/06/02 09:01:31;;;;;;;9.47;8.77;;;;;;;18.90;100.00;96856.47;5009900;28;20440;-68
2023/06/02 09:03:58;;;;;;;9.87;9.13;;;;;;;18.69;100.00;96855.34;5010569;28;20302;-68
2023/06/02 09:06:28;;;;;;;8.70;8.10;;;;;;;18.58;100.00;96847.13;5012475;28;20511;-67
2023/06/02 09:08:57;;;;;;;9.47;8.57;;;;;;;18.81;100.00;96856.06;4967945;28;20251;-68
2023/06/02 09:11:26;;;;;;;10.00;8.73;;;;;;;18.99;100.00;96849.66;5007315;28;20195;-68
2023/06/02 09:13:54;;;;;;;10.33;9.43;;;;;;;19.00;100.00;96856.63;4985457;28;20878;-67
2023/06/02 09:16:23;;;;;;;10.53;9.40;;;;;;;19.16;98.50;96857.69;5006506;28;20493;-69
2023/06/02 09:18:58;;;;;;;11.20;10.10;;;;;;;18.95;95.30;96843.94;5015589;28;20223;-67
2023/06/02 09:21:28;;;;;;;9.23;8.43;;;;;;;19.26;94.52;96854.31;5012003;28;20204;-68
2023/06/02 09:23:57;;;;;;;9.07;8.37;;;;;;;19.30;94.81;96855.44;5012041;28;20336;-68
2023/06/02 09:26:48;;;;;;;9.03;8.20;;;;;;;19.28;94.83;96836.09;4995131;28;20231;-67
2023/06/02 09:29:16;;;;;;;10.33;8.70;;;;;;;19.38;95.23;96844.25;4980997;28;20703;-65
2023/06/02 09:31:45;;;;;;;8.67;7.90;;;;;;;19.36;94.24;96846.38;5010811;28;20663;-68
2023/06/02 09:34:14;;;;;;;9.17;8.37;;;;;;;19.53;92.62;96849.03;5011917;28;20268;-67
2023/06/02 09:36:43;;;;;;;9.17;8.27;;;;;;;19.57;92.13;96846.66;5011478;28;20236;-67
2023/06/02 09:39:11;;;;;;;8.40;7.70;;;;;;;19.52;85.71;96854.66;4977305;28;20232;-68
2023/06/02 09:41:40;;;;;;;8.50;7.80;;;;;;;19.48;92.17;96845.44;5001336;28;20209;-67
2023/06/02 09:44:15;;;;;;;8.77;7.87;;;;;;;19.71;82.54;96848.94;4987031;28;21414;-68
2023/06/02 09:46:44;;;;;;;8.90;8.20;;;;;;;19.93;85.22;96854.34;5010529;28;20310;-66
2023/06/02 09:49:12;;;;;;;8.67;7.50;;;;;;;19.98;76.95;96846.31;5013616;28;20223;-69
2023/06/02 09:51:40;;;;;;;7.30;6.80;;;;;;;20.11;79.99;96855.88;5015891;28;20231;-68
2023/06/02 09:54:09;;;;;;;9.13;7.73;;;;;;;19.85;75.54;96852.88;5004773;28;20776;-69
2023/06/02 09:56:37;;;;;;;8.13;7.53;;;;;;;19.81;73.33;96851.75;4965201;28;20294;-69
2023/06/02 09:59:06;;;;;;;8.30;7.50;;;;;;;19.72;76.66;96855.94;4996923;28;20220;-69
2023/06/02 10:01:34;;;;;;;8.93;8.23;;;;;;;19.58;79.20;96848.28;4978741;28;20790;-68
2023/06/02 10:04:02;;;;;;;8.87;8.07;;;;;;;19.81;82.21;96855.28;5010134;28;20622;-67
2023/06/02 10:06:48;;;;;;;9.67;8.60;;;;;;;19.86;79.78;96849.13;5007713;28;21674;-67
2023/06/02 10:09:33;;;;;;;9.20;8.40;;;;;;;20.00;79.37;96844.19;5006371;28;20250;-65
2023/06/02 10:12:12;;;;;;;9.03;8.20;;;;;;;20.24;76.87;96849.28;4968666;28;20259;-69
2023/06/02 10:14:55;;;;;;;8.27;7.47;;;;;;;20.32;75.11;96848.00;4986371;28;20204;-66
2023/06/02 10:17:31;;;;;;;8.67;7.77;;;;;;;20.25;70.68;96832.06;4987505;28;20240;-67
2023/06/02 10:20:10;;;;;;;8.27;7.57;;;;;;;20.40;66.94;96836.78;5011662;28;20502;-67
2023/06/02 10:22:48;;;;;;;8.50;7.60;;;;;;;20.44;66.51;96840.56;5005382;28;20921;-68
2023/06/02 10:25:24;;;;;;;8.43;7.77;;;;;;;20.50;65.93;96841.44;5007544;28;20670;-66
2023/06/02 10:27:52;;;;;;;8.10;7.50;;;;;;;20.46;59.66;96830.38;4961066;28;20239;-68
2023/06/02 10:30:20;;;;;;;6.73;6.13;;;;;;;20.34;55.53;96838.59;4984143;28;21602;-67
2023/06/02 10:32:50;;;;;;;7.20;6.60;;;;;;;20.49;56.45;96834.44;4986766;28;20212;-67
2023/06/02 10:35:18;;;;;;;6.40;5.90;;;;;;;20.54;56.10;96835.25;5010929;28;20612;-68
2023/06/02 10:37:46;;;;;;;8.10;6.17;;;;;;;20.72;53.73;96835.13;5008617;28;20220;-67
2023/06/02 10:40:14;;;;;;;5.77;5.37;;;;;;;20.90;54.96;96839.31;5002374;28;20201;-70
2023/06/02 10:43:12;;;;;;;6.20;5.80;;;;;;;20.98;48.25;96827.25;4964145;28;20346;-67
2023/06/02 10:45:42;;;;;;;5.90;5.40;;;;;;;21.07;47.18;96823.81;4984137;28;20239;-69
2023/06/02 10:48:36;;;;;;;5.90;5.50;;;;;;;21.15;45.65;96832.47;4987380;28;20228;-69
2023/06/02 10:51:04;;;;;;;5.60;5.20;;;;;;;21.20;45.11;96830.59;5010705;28;20695;-68
2023/06/02 10:53:32;;;;;;;7.23;6.70;;;;;;;21.35;54.20;96821.00;5007499;28;20399;-67
2023/06/02 10:56:33;;;;;;;6.20;5.60;;;;;;;21.55;52.86;96821.06;5006949;28;20207;-69
2023/06/02 10:59:03;;;;;;;6.73;6.10;;;;;;;21.63;47.28;96805.47;4950526;28;20313;-68
2023/06/02 11:01:49;;;;;;;5.40;5.10;;;;;;;21.60;45.06;96812.19;4985238;28;21129;-71
2023/06/02 11:04:24;;;;;;;7.40;6.70;;;;;;;21.57;48.66;96815.41;4981871;28;20829;-68
2023/06/02 11:07:18;;;;;;;7.37;6.07;;;;;;;21.75;48.91;96821.44;5009319;28;20706;-68
2023/06/02 11:09:48;;;;;;;6.63;6.13;;;;;;;21.96;46.85;96819.59;5010160;28;20208;-68
2023/06/02 11:12:16;;;;;;;5.77;5.27;;;;;;;21.53;44.73;96792.78;4981153;28;20859;-69
2023/06/02 11:15:20;;;;;;;9.83;6.63;;;;;;;21.72;48.09;96814.69;5001055;28;20212;-68
2023/06/02 11:17:50;;;;;;;6.83;6.20;;;;;;;21.74;46.87;96814.41;4986641;28;20231;-67
2023/06/02 11:20:18;;;;;;;7.13;6.53;;;;;;;21.88;49.68;96812.84;4984543;28;20204;-68
2023/06/02 11:22:46;;;;;;;6.47;5.93;;;;;;;21.80;48.24;96816.06;5012796;28;20228;-65
2023/06/02 11:25:16;;;;;;;6.40;5.90;;;;;;;21.83;47.53;96810.16;5006176;28;20210;-67
2023/06/02 11:27:46;;;;;;;7.07;6.37;;;;;;;22.02;49.26;96817.72;4958548;28;20231;-69
2023/06/02 11:30:15;;;;;;;6.70;6.30;;;;;;;21.96;50.14;96814.19;4986274;28;20227;-68
2023/06/02 11:32:46;;;;;;;7.13;6.60;;;;;;;22.11;51.48;96816.94;4981695;28;20204;-67